sensor_id;sensor_type;location;lat;lon;timestamp;P1;durP1;ratioP1;P2;durP2;ratioP2
72404;SDS011;60395;52.020;113.548;2022-11-22T00:03:06;35.47;;;8.85;;
72404;SDS011;60395;52.020;113.548;2022-11-22T00:06:18;35.55;;;13.75;;
72404;SDS011;60395;52.020;113.548;2022-11-22T00:09:21;28.23;;;10.70;;
72404;SDS011;60395;52.020;113.548;2022-11-22T00:12:33;23.65;;;12.45;;
72404;SDS011;60395;52.020;113.548;2022-11-22T00:15:43;30.52;;;12.75;;
72404;SDS011;60395;52.020;113.548;2022-11-22T00:18:50;37.78;;;13.35;;
72404;SDS011;60395;52.020;113.548;2022-11-22T00:21:54;36.17;;;13.05;;
72404;SDS011;60395;52.020;113.548;2022-11-22T00:25:12;54.30;;;20.05;;
72404;SDS011;60395;52.020;113.548;2022-11-22T00:28:22;71.05;;;23.60;;
72404;SDS011;60395;52.020;113.548;2022-11-22T00:31:28;51.83;;;19.70;;
72404;SDS011;60395;52.020;113.548;2022-11-22T00:34:37;43.92;;;17.90;;
72404;SDS011;60395;52.020;113.548;2022-11-22T00:37:40;64.55;;;18.75;;
72404;SDS011;60395;52.020;113.548;2022-11-22T00:40:44;54.83;;;19.38;;
72404;SDS011;60395;52.020;113.548;2022-11-22T00:43:48;38.15;;;15.82;;
72404;SDS011;60395;52.020;113.548;2022-11-22T00:46:52;77.07;;;23.63;;
72404;SDS011;60395;52.020;113.548;2022-11-22T00:49:59;85.25;;;28.35;;
72404;SDS011;60395;52.020;113.548;2022-11-22T00:53:05;137.77;;;40.58;;
72404;SDS011;60395;52.020;113.548;2022-11-22T00:59:16;95.82;;;29.02;;
72404;SDS011;60395;52.020;113.548;2022-11-22T01:02:25;103.57;;;33.55;;
72404;SDS011;60395;52.020;113.548;2022-11-22T01:05:29;65.97;;;24.15;;
72404;SDS011;60395;52.020;113.548;2022-11-22T01:08:35;97.07;;;32.60;;
72404;SDS011;60395;52.020;113.548;2022-11-22T01:11:41;81.88;;;23.67;;
72404;SDS011;60395;52.020;113.548;2022-11-22T01:14:45;72.05;;;22.77;;
72404;SDS011;60395;52.020;113.548;2022-11-22T01:17:49;83.93;;;24.75;;
72404;SDS011;60395;52.020;113.548;2022-11-22T01:20:55;82.40;;;28.35;;
72404;SDS011;60395;52.020;113.548;2022-11-22T01:23:59;34.78;;;12.73;;
72404;SDS011;60395;52.020;113.548;2022-11-22T01:27:03;61.63;;;21.38;;
72404;SDS011;60395;52.020;113.548;2022-11-22T01:30:10;56.00;;;19.08;;
72404;SDS011;60395;52.020;113.548;2022-11-22T01:33:18;54.17;;;18.75;;
72404;SDS011;60395;52.020;113.548;2022-11-22T01:36:25;45.85;;;19.02;;
72404;SDS011;60395;52.020;113.548;2022-11-22T01:39:32;76.55;;;22.02;;
72404;SDS011;60395;52.020;113.548;2022-11-22T01:42:50;65.80;;;19.50;;
72404;SDS011;60395;52.020;113.548;2022-11-22T01:46:00;37.72;;;15.55;;
72404;SDS011;60395;52.020;113.548;2022-11-22T01:53:21;48.97;;;18.50;;
72404;SDS011;60395;52.020;113.548;2022-11-22T01:56:36;39.15;;;16.85;;
72404;SDS011;60395;52.020;113.548;2022-11-22T01:59:47;25.00;;;8.40;;
72404;SDS011;60395;52.020;113.548;2022-11-22T02:03:01;14.98;;;7.13;;
72404;SDS011;60395;52.020;113.548;2022-11-22T02:06:19;28.05;;;11.20;;
72404;SDS011;60395;52.020;113.548;2022-11-22T02:09:31;31.35;;;11.20;;
72404;SDS011;60395;52.020;113.548;2022-11-22T02:12:37;48.72;;;14.50;;
72404;SDS011;60395;52.020;113.548;2022-11-22T02:15:44;33.72;;;12.68;;
72404;SDS011;60395;52.020;113.548;2022-11-22T02:18:47;25.92;;;12.40;;
72404;SDS011;60395;52.020;113.548;2022-11-22T02:21:54;53.05;;;16.60;;
72404;SDS011;60395;52.020;113.548;2022-11-22T02:28:37;47.00;;;16.27;;
72404;SDS011;60395;52.020;113.548;2022-11-22T02:31:48;41.75;;;14.32;;
72404;SDS011;60395;52.020;113.548;2022-11-22T02:37:58;28.90;;;9.60;;
72404;SDS011;60395;52.020;113.548;2022-11-22T02:41:25;34.00;;;12.32;;
72404;SDS011;60395;52.020;113.548;2022-11-22T02:44:35;40.92;;;14.65;;
72404;SDS011;60395;52.020;113.548;2022-11-22T02:48:27;48.08;;;16.95;;
72404;SDS011;60395;52.020;113.548;2022-11-22T02:51:24;48.22;;;15.23;;
72404;SDS011;60395;52.020;113.548;2022-11-22T02:54:30;57.00;;;16.90;;
72404;SDS011;60395;52.020;113.548;2022-11-22T02:57:37;54.47;;;20.05;;
72404;SDS011;60395;52.020;113.548;2022-11-22T03:03:44;45.72;;;14.23;;
72404;SDS011;60395;52.020;113.548;2022-11-22T03:06:47;31.67;;;13.43;;
72404;SDS011;60395;52.020;113.548;2022-11-22T03:09:50;59.47;;;19.48;;
72404;SDS011;60395;52.020;113.548;2022-11-22T03:12:55;67.05;;;22.08;;
72404;SDS011;60395;52.020;113.548;2022-11-22T03:15:58;62.95;;;21.77;;
72404;SDS011;60395;52.020;113.548;2022-11-22T03:19:02;71.35;;;22.88;;
72404;SDS011;60395;52.020;113.548;2022-11-22T03:22:05;72.63;;;18.00;;
72404;SDS011;60395;52.020;113.548;2022-11-22T03:25:08;72.82;;;24.08;;
72404;SDS011;60395;52.020;113.548;2022-11-22T03:28:11;57.75;;;21.98;;
72404;SDS011;60395;52.020;113.548;2022-11-22T03:31:14;75.90;;;24.10;;
72404;SDS011;60395;52.020;113.548;2022-11-22T03:34:17;68.13;;;24.10;;
72404;SDS011;60395;52.020;113.548;2022-11-22T03:37:20;91.85;;;29.23;;
72404;SDS011;60395;52.020;113.548;2022-11-22T03:40:23;98.03;;;29.25;;
72404;SDS011;60395;52.020;113.548;2022-11-22T03:43:26;82.80;;;26.20;;
72404;SDS011;60395;52.020;113.548;2022-11-22T03:46:29;87.80;;;27.38;;
72404;SDS011;60395;52.020;113.548;2022-11-22T03:49:32;77.57;;;23.73;;
72404;SDS011;60395;52.020;113.548;2022-11-22T03:52:35;86.78;;;28.60;;
72404;SDS011;60395;52.020;113.548;2022-11-22T03:55:38;77.68;;;25.75;;
72404;SDS011;60395;52.020;113.548;2022-11-22T03:58:42;94.35;;;30.35;;
72404;SDS011;60395;52.020;113.548;2022-11-22T04:01:45;71.07;;;23.20;;
72404;SDS011;60395;52.020;113.548;2022-11-22T04:04:48;81.57;;;27.42;;
72404;SDS011;60395;52.020;113.548;2022-11-22T04:07:51;76.53;;;28.70;;
72404;SDS011;60395;52.020;113.548;2022-11-22T04:10:57;77.97;;;26.48;;
72404;SDS011;60395;52.020;113.548;2022-11-22T04:14:00;88.30;;;30.52;;
72404;SDS011;60395;52.020;113.548;2022-11-22T04:17:22;100.75;;;31.17;;
72404;SDS011;60395;52.020;113.548;2022-11-22T04:20:45;106.18;;;27.00;;
72404;SDS011;60395;52.020;113.548;2022-11-22T04:24:07;79.45;;;22.80;;
72404;SDS011;60395;52.020;113.548;2022-11-22T04:27:30;75.70;;;25.02;;
72404;SDS011;60395;52.020;113.548;2022-11-22T04:30:33;67.72;;;22.08;;
72404;SDS011;60395;52.020;113.548;2022-11-22T04:33:55;102.22;;;33.22;;
72404;SDS011;60395;52.020;113.548;2022-11-22T04:36:58;99.15;;;32.95;;
72404;SDS011;60395;52.020;113.548;2022-11-22T04:40:02;79.25;;;26.85;;
72404;SDS011;60395;52.020;113.548;2022-11-22T04:43:06;117.93;;;35.47;;
72404;SDS011;60395;52.020;113.548;2022-11-22T04:46:28;79.80;;;29.02;;
72404;SDS011;60395;52.020;113.548;2022-11-22T04:52:35;85.25;;;30.30;;
72404;SDS011;60395;52.020;113.548;2022-11-22T04:55:57;61.42;;;22.73;;
72404;SDS011;60395;52.020;113.548;2022-11-22T04:59:00;67.20;;;24.75;;
72404;SDS011;60395;52.020;113.548;2022-11-22T05:02:03;93.00;;;34.70;;
72404;SDS011;60395;52.020;113.548;2022-11-22T05:05:06;133.23;;;40.67;;
72404;SDS011;60395;52.020;113.548;2022-11-22T05:08:12;115.70;;;39.50;;
72404;SDS011;60395;52.020;113.548;2022-11-22T05:11:15;56.97;;;19.70;;
72404;SDS011;60395;52.020;113.548;2022-11-22T05:14:19;113.00;;;35.05;;
72404;SDS011;60395;52.020;113.548;2022-11-22T05:17:22;67.53;;;25.65;;
72404;SDS011;60395;52.020;113.548;2022-11-22T05:20:25;61.65;;;21.25;;
72404;SDS011;60395;52.020;113.548;2022-11-22T05:23:28;42.90;;;14.45;;
72404;SDS011;60395;52.020;113.548;2022-11-22T05:26:50;57.08;;;20.58;;
72404;SDS011;60395;52.020;113.548;2022-11-22T05:29:53;45.10;;;16.15;;
72404;SDS011;60395;52.020;113.548;2022-11-22T05:32:56;40.17;;;15.00;;
72404;SDS011;60395;52.020;113.548;2022-11-22T05:35:59;39.15;;;14.52;;
72404;SDS011;60395;52.020;113.548;2022-11-22T05:39:03;51.75;;;15.60;;
72404;SDS011;60395;52.020;113.548;2022-11-22T05:42:06;33.08;;;13.50;;
72404;SDS011;60395;52.020;113.548;2022-11-22T05:45:09;35.90;;;13.70;;
72404;SDS011;60395;52.020;113.548;2022-11-22T05:48:12;36.05;;;12.27;;
72404;SDS011;60395;52.020;113.548;2022-11-22T05:51:16;31.10;;;12.07;;
72404;SDS011;60395;52.020;113.548;2022-11-22T05:54:20;33.67;;;12.40;;
72404;SDS011;60395;52.020;113.548;2022-11-22T05:57:24;31.38;;;11.00;;
72404;SDS011;60395;52.020;113.548;2022-11-22T06:00:27;31.30;;;11.32;;
72404;SDS011;60395;52.020;113.548;2022-11-22T06:03:31;38.72;;;13.77;;
72404;SDS011;60395;52.020;113.548;2022-11-22T06:06:34;33.33;;;13.70;;
72404;SDS011;60395;52.020;113.548;2022-11-22T06:09:38;42.63;;;13.98;;
72404;SDS011;60395;52.020;113.548;2022-11-22T06:12:41;46.63;;;15.63;;
72404;SDS011;60395;52.020;113.548;2022-11-22T06:15:44;54.45;;;15.57;;
72404;SDS011;60395;52.020;113.548;2022-11-22T06:18:47;34.53;;;11.90;;
72404;SDS011;60395;52.020;113.548;2022-11-22T06:21:50;30.67;;;10.55;;
72404;SDS011;60395;52.020;113.548;2022-11-22T06:24:53;33.70;;;11.65;;
72404;SDS011;60395;52.020;113.548;2022-11-22T06:27:58;32.10;;;12.43;;
72404;SDS011;60395;52.020;113.548;2022-11-22T06:31:02;30.60;;;10.43;;
72404;SDS011;60395;52.020;113.548;2022-11-22T06:34:15;26.45;;;8.73;;
72404;SDS011;60395;52.020;113.548;2022-11-22T06:37:18;27.67;;;10.38;;
72404;SDS011;60395;52.020;113.548;2022-11-22T06:40:21;36.95;;;11.10;;
72404;SDS011;60395;52.020;113.548;2022-11-22T06:43:26;42.88;;;12.98;;
72404;SDS011;60395;52.020;113.548;2022-11-22T06:46:32;37.25;;;12.82;;
72404;SDS011;60395;52.020;113.548;2022-11-22T06:49:36;31.83;;;11.52;;
72404;SDS011;60395;52.020;113.548;2022-11-22T06:52:39;19.58;;;7.95;;
72404;SDS011;60395;52.020;113.548;2022-11-22T06:55:42;24.83;;;9.43;;
72404;SDS011;60395;52.020;113.548;2022-11-22T06:59:01;28.42;;;10.18;;
72404;SDS011;60395;52.020;113.548;2022-11-22T07:02:07;42.30;;;12.20;;
72404;SDS011;60395;52.020;113.548;2022-11-22T07:05:13;32.53;;;11.07;;
72404;SDS011;60395;52.020;113.548;2022-11-22T07:08:27;26.30;;;9.10;;
72404;SDS011;60395;52.020;113.548;2022-11-22T07:11:30;21.35;;;7.53;;
72404;SDS011;60395;52.020;113.548;2022-11-22T07:14:33;18.63;;;6.43;;
72404;SDS011;60395;52.020;113.548;2022-11-22T07:17:37;16.75;;;5.68;;
72404;SDS011;60395;52.020;113.548;2022-11-22T07:20:40;20.25;;;7.50;;
72404;SDS011;60395;52.020;113.548;2022-11-22T07:23:43;21.48;;;7.07;;
72404;SDS011;60395;52.020;113.548;2022-11-22T07:29:50;16.08;;;5.32;;
72404;SDS011;60395;52.020;113.548;2022-11-22T07:32:53;26.60;;;9.00;;
72404;SDS011;60395;52.020;113.548;2022-11-22T07:36:06;19.90;;;6.28;;
72404;SDS011;60395;52.020;113.548;2022-11-22T07:39:11;17.98;;;6.43;;
72404;SDS011;60395;52.020;113.548;2022-11-22T07:42:14;19.20;;;5.45;;
72404;SDS011;60395;52.020;113.548;2022-11-22T07:45:21;17.70;;;6.57;;
72404;SDS011;60395;52.020;113.548;2022-11-22T07:48:25;15.30;;;6.00;;
72404;SDS011;60395;52.020;113.548;2022-11-22T07:51:28;25.63;;;6.65;;
72404;SDS011;60395;52.020;113.548;2022-11-22T07:54:31;10.93;;;4.47;;
72404;SDS011;60395;52.020;113.548;2022-11-22T07:57:34;17.05;;;5.70;;
72404;SDS011;60395;52.020;113.548;2022-11-22T08:00:38;17.98;;;6.20;;
72404;SDS011;60395;52.020;113.548;2022-11-22T08:03:41;25.55;;;8.85;;
72404;SDS011;60395;52.020;113.548;2022-11-22T08:06:45;23.30;;;8.05;;
72404;SDS011;60395;52.020;113.548;2022-11-22T08:09:48;29.52;;;9.63;;
72404;SDS011;60395;52.020;113.548;2022-11-22T08:12:51;12.52;;;5.88;;
72404;SDS011;60395;52.020;113.548;2022-11-22T08:15:54;25.45;;;9.30;;
72404;SDS011;60395;52.020;113.548;2022-11-22T08:19:05;27.48;;;9.38;;
72404;SDS011;60395;52.020;113.548;2022-11-22T08:22:08;27.83;;;9.35;;
72404;SDS011;60395;52.020;113.548;2022-11-22T08:25:11;26.77;;;9.27;;
72404;SDS011;60395;52.020;113.548;2022-11-22T08:28:14;35.67;;;10.07;;
72404;SDS011;60395;52.020;113.548;2022-11-22T08:31:18;28.60;;;10.93;;
72404;SDS011;60395;52.020;113.548;2022-11-22T08:34:21;37.35;;;10.88;;
72404;SDS011;60395;52.020;113.548;2022-11-22T08:37:38;36.00;;;14.18;;
72404;SDS011;60395;52.020;113.548;2022-11-22T08:40:43;38.83;;;13.32;;
72404;SDS011;60395;52.020;113.548;2022-11-22T08:43:50;50.45;;;16.70;;
72404;SDS011;60395;52.020;113.548;2022-11-22T08:46:58;49.25;;;16.83;;
72404;SDS011;60395;52.020;113.548;2022-11-22T08:50:04;31.98;;;9.60;;
72404;SDS011;60395;52.020;113.548;2022-11-22T08:53:10;30.52;;;10.70;;
72404;SDS011;60395;52.020;113.548;2022-11-22T08:56:16;41.10;;;13.32;;
72404;SDS011;60395;52.020;113.548;2022-11-22T08:59:32;54.28;;;20.67;;
72404;SDS011;60395;52.020;113.548;2022-11-22T09:02:38;44.45;;;16.95;;
72404;SDS011;60395;52.020;113.548;2022-11-22T09:05:42;61.88;;;16.80;;
72404;SDS011;60395;52.020;113.548;2022-11-22T09:09:10;58.90;;;21.13;;
72404;SDS011;60395;52.020;113.548;2022-11-22T09:12:37;79.18;;;24.60;;
72404;SDS011;60395;52.020;113.548;2022-11-22T09:15:43;38.42;;;14.65;;
72404;SDS011;60395;52.020;113.548;2022-11-22T09:19:04;46.13;;;16.88;;
72404;SDS011;60395;52.020;113.548;2022-11-22T09:22:19;46.00;;;16.95;;
72404;SDS011;60395;52.020;113.548;2022-11-22T09:25:29;41.53;;;16.08;;
72404;SDS011;60395;52.020;113.548;2022-11-22T09:28:40;38.97;;;13.50;;
72404;SDS011;60395;52.020;113.548;2022-11-22T09:31:45;34.13;;;12.40;;
72404;SDS011;60395;52.020;113.548;2022-11-22T09:35:03;46.05;;;15.13;;
72404;SDS011;60395;52.020;113.548;2022-11-22T09:38:08;74.30;;;21.88;;
72404;SDS011;60395;52.020;113.548;2022-11-22T09:44:58;127.38;;;33.00;;
72404;SDS011;60395;52.020;113.548;2022-11-22T09:48:51;55.55;;;17.25;;
72404;SDS011;60395;52.020;113.548;2022-11-22T09:52:08;61.00;;;17.40;;
72404;SDS011;60395;52.020;113.548;2022-11-22T09:55:28;30.05;;;11.25;;
72404;SDS011;60395;52.020;113.548;2022-11-22T09:58:46;22.98;;;8.35;;
72404;SDS011;60395;52.020;113.548;2022-11-22T10:02:21;24.23;;;8.63;;
72404;SDS011;60395;52.020;113.548;2022-11-22T10:06:03;35.92;;;8.18;;
72404;SDS011;60395;52.020;113.548;2022-11-22T10:09:29;35.70;;;12.82;;
72404;SDS011;60395;52.020;113.548;2022-11-22T10:12:49;54.30;;;16.52;;
72404;SDS011;60395;52.020;113.548;2022-11-22T10:16:17;63.55;;;20.25;;
72404;SDS011;60395;52.020;113.548;2022-11-22T10:19:38;122.63;;;38.30;;
72404;SDS011;60395;52.020;113.548;2022-11-22T10:22:53;121.90;;;26.98;;
72404;SDS011;60395;52.020;113.548;2022-11-22T10:25:59;75.68;;;17.52;;
72404;SDS011;60395;52.020;113.548;2022-11-22T10:32:32;31.02;;;9.85;;
72404;SDS011;60395;52.020;113.548;2022-11-22T10:46:16;38.10;;;13.15;;
72404;SDS011;60395;52.020;113.548;2022-11-22T10:49:29;23.50;;;9.13;;
72404;SDS011;60395;52.020;113.548;2022-11-22T10:55:56;32.20;;;10.25;;
72404;SDS011;60395;52.020;113.548;2022-11-22T11:06:07;45.28;;;14.98;;
72404;SDS011;60395;52.020;113.548;2022-11-22T11:09:57;46.85;;;15.60;;
72404;SDS011;60395;52.020;113.548;2022-11-22T11:13:19;44.47;;;16.48;;
72404;SDS011;60395;52.020;113.548;2022-11-22T11:16:31;50.75;;;14.65;;
72404;SDS011;60395;52.020;113.548;2022-11-22T11:19:37;39.92;;;13.68;;
72404;SDS011;60395;52.020;113.548;2022-11-22T11:22:45;36.17;;;12.52;;
72404;SDS011;60395;52.020;113.548;2022-11-22T11:26:16;31.25;;;8.82;;
72404;SDS011;60395;52.020;113.548;2022-11-22T11:32:54;21.85;;;9.60;;
72404;SDS011;60395;52.020;113.548;2022-11-22T11:36:03;25.15;;;9.57;;
72404;SDS011;60395;52.020;113.548;2022-11-22T11:39:18;29.08;;;10.32;;
72404;SDS011;60395;52.020;113.548;2022-11-22T11:42:32;25.38;;;9.98;;
72404;SDS011;60395;52.020;113.548;2022-11-22T11:45:36;44.60;;;15.68;;
72404;SDS011;60395;52.020;113.548;2022-11-22T11:48:39;35.40;;;14.23;;
72404;SDS011;60395;52.020;113.548;2022-11-22T11:54:57;20.92;;;9.30;;
72404;SDS011;60395;52.020;113.548;2022-11-22T11:58:03;28.55;;;10.57;;
72404;SDS011;60395;52.020;113.548;2022-11-22T12:01:20;34.28;;;11.63;;
72404;SDS011;60395;52.020;113.548;2022-11-22T12:10:48;34.60;;;12.13;;
72404;SDS011;60395;52.020;113.548;2022-11-22T12:14:15;12.30;;;5.32;;
72404;SDS011;60395;52.020;113.548;2022-11-22T12:17:25;39.30;;;12.77;;
72404;SDS011;60395;52.020;113.548;2022-11-22T12:20:42;22.63;;;9.32;;
72404;SDS011;60395;52.020;113.548;2022-11-22T12:27:35;42.60;;;14.65;;
72404;SDS011;60395;52.020;113.548;2022-11-22T12:30:38;40.75;;;13.20;;
72404;SDS011;60395;52.020;113.548;2022-11-22T12:33:52;28.73;;;10.60;;
72404;SDS011;60395;52.020;113.548;2022-11-22T12:40:26;35.80;;;11.93;;
72404;SDS011;60395;52.020;113.548;2022-11-22T12:43:36;55.83;;;16.70;;
72404;SDS011;60395;52.020;113.548;2022-11-22T12:46:48;55.20;;;16.40;;
72404;SDS011;60395;52.020;113.548;2022-11-22T12:50:26;41.60;;;14.05;;
72404;SDS011;60395;52.020;113.548;2022-11-22T12:53:40;49.72;;;15.13;;
72404;SDS011;60395;52.020;113.548;2022-11-22T12:56:47;36.25;;;13.73;;
72404;SDS011;60395;52.020;113.548;2022-11-22T13:00:14;22.70;;;8.32;;
72404;SDS011;60395;52.020;113.548;2022-11-22T13:06:48;23.75;;;8.05;;
72404;SDS011;60395;52.020;113.548;2022-11-22T13:09:54;26.23;;;8.23;;
72404;SDS011;60395;52.020;113.548;2022-11-22T13:13:03;25.05;;;9.82;;
72404;SDS011;60395;52.020;113.548;2022-11-22T13:16:15;23.60;;;8.10;;
72404;SDS011;60395;52.020;113.548;2022-11-22T13:19:19;27.48;;;11.32;;
72404;SDS011;60395;52.020;113.548;2022-11-22T13:29:25;26.00;;;9.75;;
72404;SDS011;60395;52.020;113.548;2022-11-22T13:32:30;26.77;;;8.40;;
72404;SDS011;60395;52.020;113.548;2022-11-22T13:35:35;27.50;;;11.02;;
72404;SDS011;60395;52.020;113.548;2022-11-22T13:48:07;23.35;;;9.77;;
72404;SDS011;60395;52.020;113.548;2022-11-22T13:51:15;24.77;;;8.95;;
72404;SDS011;60395;52.020;113.548;2022-11-22T13:54:39;24.95;;;9.52;;
72404;SDS011;60395;52.020;113.548;2022-11-22T14:01:52;17.83;;;7.03;;
72404;SDS011;60395;52.020;113.548;2022-11-22T14:04:56;18.55;;;8.57;;
72404;SDS011;60395;52.020;113.548;2022-11-22T14:08:01;22.77;;;7.45;;
72404;SDS011;60395;52.020;113.548;2022-11-22T14:11:37;18.75;;;6.30;;
72404;SDS011;60395;52.020;113.548;2022-11-22T14:15:16;16.33;;;6.35;;
72404;SDS011;60395;52.020;113.548;2022-11-22T14:28:53;19.42;;;7.20;;
72404;SDS011;60395;52.020;113.548;2022-11-22T14:45:52;7.53;;;3.42;;
72404;SDS011;60395;52.020;113.548;2022-11-22T14:49:03;14.40;;;5.28;;
72404;SDS011;60395;52.020;113.548;2022-11-22T14:52:19;12.52;;;4.55;;
72404;SDS011;60395;52.020;113.548;2022-11-22T14:55:25;11.00;;;4.72;;
72404;SDS011;60395;52.020;113.548;2022-11-22T14:58:47;12.70;;;5.43;;
72404;SDS011;60395;52.020;113.548;2022-11-22T15:09:04;18.27;;;6.85;;
72404;SDS011;60395;52.020;113.548;2022-11-22T15:16:15;15.82;;;6.38;;
72404;SDS011;60395;52.020;113.548;2022-11-22T15:19:43;25.88;;;8.82;;
72404;SDS011;60395;52.020;113.548;2022-11-22T15:30:08;16.27;;;6.90;;
72404;SDS011;60395;52.020;113.548;2022-11-22T15:33:36;23.20;;;9.27;;
72404;SDS011;60395;52.020;113.548;2022-11-22T15:37:07;29.08;;;9.27;;
72404;SDS011;60395;52.020;113.548;2022-11-22T15:40:40;33.58;;;10.90;;
72404;SDS011;60395;52.020;113.548;2022-11-22T15:44:06;21.67;;;8.68;;
72404;SDS011;60395;52.020;113.548;2022-11-22T15:47:32;26.65;;;9.15;;
72404;SDS011;60395;52.020;113.548;2022-11-22T15:50:59;45.95;;;15.75;;
72404;SDS011;60395;52.020;113.548;2022-11-22T15:54:37;42.58;;;14.10;;
72404;SDS011;60395;52.020;113.548;2022-11-22T15:58:01;76.20;;;23.20;;
72404;SDS011;60395;52.020;113.548;2022-11-22T16:01:04;106.47;;;32.33;;
72404;SDS011;60395;52.020;113.548;2022-11-22T16:05:06;80.38;;;25.60;;
72404;SDS011;60395;52.020;113.548;2022-11-22T16:08:11;61.92;;;21.27;;
72404;SDS011;60395;52.020;113.548;2022-11-22T16:11:22;60.67;;;19.27;;
72404;SDS011;60395;52.020;113.548;2022-11-22T16:17:49;17.73;;;7.85;;
72404;SDS011;60395;52.020;113.548;2022-11-22T16:24:16;22.60;;;7.88;;
72404;SDS011;60395;52.020;113.548;2022-11-22T16:27:20;20.17;;;7.15;;
72404;SDS011;60395;52.020;113.548;2022-11-22T16:30:23;20.38;;;8.00;;
72404;SDS011;60395;52.020;113.548;2022-11-22T16:33:26;15.52;;;6.88;;
72404;SDS011;60395;52.020;113.548;2022-11-22T16:36:30;30.88;;;8.43;;
72404;SDS011;60395;52.020;113.548;2022-11-22T16:39:33;27.83;;;9.35;;
72404;SDS011;60395;52.020;113.548;2022-11-22T16:45:44;19.17;;;6.93;;
72404;SDS011;60395;52.020;113.548;2022-11-22T16:48:47;23.70;;;8.82;;
72404;SDS011;60395;52.020;113.548;2022-11-22T16:51:50;20.27;;;7.65;;
72404;SDS011;60395;52.020;113.548;2022-11-22T16:54:54;21.20;;;8.93;;
72404;SDS011;60395;52.020;113.548;2022-11-22T17:01:00;24.92;;;7.20;;
72404;SDS011;60395;52.020;113.548;2022-11-22T17:04:05;23.77;;;8.32;;
72404;SDS011;60395;52.020;113.548;2022-11-22T17:07:09;41.30;;;7.50;;
72404;SDS011;60395;52.020;113.548;2022-11-22T17:10:13;12.57;;;4.72;;
72404;SDS011;60395;52.020;113.548;2022-11-22T17:13:17;25.27;;;7.30;;
72404;SDS011;60395;52.020;113.548;2022-11-22T17:16:22;18.52;;;7.30;;
72404;SDS011;60395;52.020;113.548;2022-11-22T17:19:25;6.38;;;3.15;;
72404;SDS011;60395;52.020;113.548;2022-11-22T17:22:48;19.20;;;5.22;;
72404;SDS011;60395;52.020;113.548;2022-11-22T17:25:51;23.55;;;7.20;;
72404;SDS011;60395;52.020;113.548;2022-11-22T17:28:54;25.10;;;8.05;;
72404;SDS011;60395;52.020;113.548;2022-11-22T17:31:58;6.20;;;3.40;;
72404;SDS011;60395;52.020;113.548;2022-11-22T17:35:01;17.90;;;5.28;;
72404;SDS011;60395;52.020;113.548;2022-11-22T17:38:07;10.63;;;3.60;;
72404;SDS011;60395;52.020;113.548;2022-11-22T17:41:12;23.80;;;7.05;;
72404;SDS011;60395;52.020;113.548;2022-11-22T17:44:16;14.18;;;5.45;;
72404;SDS011;60395;52.020;113.548;2022-11-22T17:47:19;20.45;;;7.57;;
72404;SDS011;60395;52.020;113.548;2022-11-22T17:50:22;25.35;;;9.00;;
72404;SDS011;60395;52.020;113.548;2022-11-22T17:53:25;18.92;;;3.65;;
72404;SDS011;60395;52.020;113.548;2022-11-22T17:56:29;15.55;;;5.03;;
72404;SDS011;60395;52.020;113.548;2022-11-22T17:59:36;9.30;;;3.50;;
72404;SDS011;60395;52.020;113.548;2022-11-22T18:02:39;6.63;;;2.60;;
72404;SDS011;60395;52.020;113.548;2022-11-22T18:05:42;19.63;;;3.53;;
72404;SDS011;60395;52.020;113.548;2022-11-22T18:08:45;27.20;;;6.78;;
72404;SDS011;60395;52.020;113.548;2022-11-22T18:11:49;6.90;;;2.80;;
72404;SDS011;60395;52.020;113.548;2022-11-22T18:14:52;23.30;;;6.40;;
72404;SDS011;60395;52.020;113.548;2022-11-22T18:17:55;27.53;;;6.97;;
72404;SDS011;60395;52.020;113.548;2022-11-22T18:20:58;20.73;;;7.13;;
72404;SDS011;60395;52.020;113.548;2022-11-22T18:24:01;17.83;;;6.22;;
72404;SDS011;60395;52.020;113.548;2022-11-22T18:27:04;21.30;;;7.28;;
72404;SDS011;60395;52.020;113.548;2022-11-22T18:30:07;26.05;;;8.50;;
72404;SDS011;60395;52.020;113.548;2022-11-22T18:33:11;25.83;;;8.90;;
72404;SDS011;60395;52.020;113.548;2022-11-22T18:36:20;27.33;;;9.50;;
72404;SDS011;60395;52.020;113.548;2022-11-22T18:39:44;32.58;;;11.68;;
72404;SDS011;60395;52.020;113.548;2022-11-22T18:42:47;21.95;;;8.68;;
72404;SDS011;60395;52.020;113.548;2022-11-22T18:45:59;30.30;;;7.28;;
72404;SDS011;60395;52.020;113.548;2022-11-22T18:49:03;21.63;;;8.82;;
72404;SDS011;60395;52.020;113.548;2022-11-22T18:52:06;15.77;;;5.97;;
72404;SDS011;60395;52.020;113.548;2022-11-22T18:55:14;13.10;;;5.60;;
72404;SDS011;60395;52.020;113.548;2022-11-22T18:58:19;21.92;;;7.38;;
72404;SDS011;60395;52.020;113.548;2022-11-22T19:01:21;15.13;;;5.65;;
72404;SDS011;60395;52.020;113.548;2022-11-22T19:04:27;16.33;;;4.78;;
72404;SDS011;60395;52.020;113.548;2022-11-22T19:10:34;16.92;;;6.82;;
72404;SDS011;60395;52.020;113.548;2022-11-22T19:13:37;23.65;;;8.43;;
72404;SDS011;60395;52.020;113.548;2022-11-22T19:16:42;35.63;;;10.48;;
72404;SDS011;60395;52.020;113.548;2022-11-22T19:19:45;35.75;;;12.18;;
72404;SDS011;60395;52.020;113.548;2022-11-22T19:22:49;32.70;;;11.32;;
72404;SDS011;60395;52.020;113.548;2022-11-22T19:25:53;9.50;;;3.85;;
72404;SDS011;60395;52.020;113.548;2022-11-22T19:28:57;5.72;;;2.05;;
72404;SDS011;60395;52.020;113.548;2022-11-22T19:32:02;6.10;;;2.63;;
72404;SDS011;60395;52.020;113.548;2022-11-22T19:35:05;11.03;;;3.47;;
72404;SDS011;60395;52.020;113.548;2022-11-22T19:38:09;13.70;;;5.05;;
72404;SDS011;60395;52.020;113.548;2022-11-22T19:41:13;12.13;;;4.10;;
72404;SDS011;60395;52.020;113.548;2022-11-22T19:44:20;6.93;;;3.75;;
72404;SDS011;60395;52.020;113.548;2022-11-22T19:47:23;13.53;;;6.00;;
72404;SDS011;60395;52.020;113.548;2022-11-22T19:53:30;13.25;;;4.18;;
72404;SDS011;60395;52.020;113.548;2022-11-22T19:56:35;8.02;;;5.15;;
72404;SDS011;60395;52.020;113.548;2022-11-22T19:59:39;9.38;;;2.35;;
72404;SDS011;60395;52.020;113.548;2022-11-22T20:02:42;21.50;;;2.53;;
72404;SDS011;60395;52.020;113.548;2022-11-22T20:05:45;24.13;;;8.43;;
72404;SDS011;60395;52.020;113.548;2022-11-22T20:08:48;77.43;;;17.37;;
72404;SDS011;60395;52.020;113.548;2022-11-22T20:11:51;60.22;;;18.60;;
72404;SDS011;60395;52.020;113.548;2022-11-22T20:14:54;50.57;;;16.53;;
72404;SDS011;60395;52.020;113.548;2022-11-22T20:17:57;59.03;;;21.35;;
72404;SDS011;60395;52.020;113.548;2022-11-22T20:21:01;47.63;;;16.70;;
72404;SDS011;60395;52.020;113.548;2022-11-22T20:24:06;66.78;;;24.52;;
72404;SDS011;60395;52.020;113.548;2022-11-22T20:27:10;75.10;;;22.20;;
72404;SDS011;60395;52.020;113.548;2022-11-22T20:30:14;11.07;;;5.45;;
72404;SDS011;60395;52.020;113.548;2022-11-22T20:33:18;8.98;;;2.75;;
72404;SDS011;60395;52.020;113.548;2022-11-22T20:36:25;30.47;;;3.73;;